If you wish to contribute or participate in the discussions about articles you are invited to join SKYbrary as a registered user

 Actions

Mashhad International Airport

From SKYbrary Wiki

OIMM
Airport
ICAO: OIMM – IATA: MHD
Summary
Name Mashhad International Airport
Region Middle East
Territory Iran IR.gif
Location Mashhad, Razavi Khorasan Province
Serving Mashhad
Elevation 994.562 m
3,263 ft994.562 m
Coordinates 36° 14' 7.31" N, 59° 38' 26.77" E
Runways
Designator Length Width Surface ROPS
13L/31R 3811 m12,503.281 ft
45 m147.638 ft
ASP yes/yes
13R/31L 3925 m12,877.297 ft
45 m147.638 ft
ASP yes/yes


METAR
Observation OIMM 120030Z 21004KT CAVOK 02/M09 Q1025 A3027
Station Mashhad
Date/Time 12 November 2019 00:30:00
Wind direction 210°
Wind speed 04 kts
Lowest cloud amount clouds and visibility OK
Temperature 2°C
Dew point
Humidity 43%
QNH 1025 hPa
Weather condition n/a

Mashhad International Airport or Shahid Hashemi Nejad Airport is an airport in Mashhad, Razavi Khorasan, Iran.

Climatology

Cold Semi-arid climate (Köppen climate classification BSk). - Hot, sometimes extremely hot summers and cold, sometimes very cold winters. Some snowfall during the winter. Areas featuring cold semi-arid climates are sometimes subject to major temperature swings during a 24 hour period.

Maps

Terrain

Loading map...

Airport Layout

Loading map...


Accidents & Serious Incidents at or in vicinity of OIMM

None on SKYbrary